createdAt,value
2017-07-05T00:01:53.207Z,95.60
2017-07-05T00:04:20.653Z,95.80
2017-07-05T00:06:48.107Z,96.00
2017-07-05T00:09:15.557Z,95.80
2017-07-05T00:11:43.013Z,95.90
2017-07-05T00:14:10.454Z,95.90
2017-07-05T00:16:37.935Z,95.80
2017-07-05T00:19:05.375Z,95.90
2017-07-05T00:21:32.819Z,95.60
2017-07-05T00:24:00.254Z,95.90
2017-07-05T00:26:28.487Z,96.10
2017-07-05T00:28:55.931Z,96.10
2017-07-05T00:31:23.373Z,96.30
2017-07-05T00:33:50.814Z,96.30
2017-07-05T00:36:18.259Z,97.00
2017-07-05T00:38:46.471Z,96.20
2017-07-05T00:41:13.916Z,96.20
2017-07-05T00:43:41.364Z,96.60
2017-07-05T00:46:08.810Z,96.40
2017-07-05T00:48:36.259Z,96.10
2017-07-05T00:51:04.473Z,95.80
2017-07-05T00:53:31.940Z,95.80
2017-07-05T00:55:59.380Z,95.70
2017-07-05T00:58:26.823Z,95.50
2017-07-05T01:00:54.272Z,95.40
2017-07-05T01:03:21.712Z,95.70
2017-07-05T01:05:49.924Z,95.80
2017-07-05T01:08:17.369Z,95.80
2017-07-05T01:10:44.811Z,96.20
2017-07-05T01:13:12.252Z,96.10
2017-07-05T01:15:40.469Z,96.30
2017-07-05T01:18:07.925Z,96.30
2017-07-05T01:20:35.379Z,96.30
2017-07-05T01:23:02.819Z,96.10
2017-07-05T01:25:30.256Z,96.30
2017-07-05T01:27:58.467Z,96.10
2017-07-05T01:30:25.913Z,96.10
2017-07-05T01:32:53.356Z,96.20
2017-07-05T01:35:20.799Z,95.40
2017-07-05T01:37:49.008Z,96.10
2017-07-05T01:40:16.448Z,96.10
2017-07-05T01:42:43.891Z,96.30
2017-07-05T01:45:11.323Z,96.30
2017-07-05T01:47:39.550Z,96.50
2017-07-05T01:50:06.991Z,96.50
2017-07-05T01:52:34.459Z,96.40
2017-07-05T01:55:01.903Z,96.50
2017-07-05T01:57:29.344Z,97.00
2017-07-05T01:59:56.790Z,96.90
2017-07-05T02:02:25.005Z,97.20
2017-07-05T02:04:52.456Z,97.20
2017-07-05T02:07:19.896Z,97.30
2017-07-05T02:09:47.343Z,97.30
2017-07-05T02:12:14.783Z,97.10
2017-07-05T02:14:43.000Z,97.30
2017-07-05T02:17:10.443Z,97.30
2017-07-05T02:19:37.892Z,97.60
2017-07-05T02:22:05.326Z,97.50
2017-07-05T02:24:33.564Z,98.00
2017-07-05T02:27:01.802Z,97.70
2017-07-05T02:29:29.244Z,97.70
2017-07-05T02:31:56.690Z,97.50
2017-07-05T02:34:24.951Z,97.50
2017-07-05T02:36:52.395Z,97.50
2017-07-05T02:39:19.840Z,97.80
2017-07-05T02:41:47.291Z,97.90
2017-07-05T02:44:14.735Z,98.00
2017-07-05T02:46:42.186Z,98.00
2017-07-05T02:49:09.615Z,98.30
2017-07-05T02:51:37.096Z,98.30
2017-07-05T02:54:04.552Z,97.90
2017-07-05T02:56:31.995Z,98.20
2017-07-05T02:58:59.442Z,98.00
2017-07-05T03:01:26.882Z,97.90
2017-07-05T03:03:55.095Z,98.00
2017-07-05T03:06:22.543Z,98.00
2017-07-05T03:08:49.983Z,98.10
2017-07-05T03:11:17.424Z,98.40
2017-07-05T03:13:45.638Z,98.70
2017-07-05T03:16:13.092Z,98.60
2017-07-05T03:18:40.547Z,99.10
2017-07-05T03:21:07.979Z,98.60
2017-07-05T03:23:35.462Z,98.50
2017-07-05T03:26:02.903Z,98.80
2017-07-05T03:28:30.342Z,98.90
2017-07-05T03:30:58.548Z,99.40
2017-07-05T03:33:25.988Z,99.40
2017-07-05T03:35:53.432Z,99.30
2017-07-05T03:38:20.866Z,99.70
2017-07-05T03:40:49.090Z,99.50
2017-07-05T03:43:16.532Z,99.50
2017-07-05T03:45:43.979Z,99.10
2017-07-05T03:48:11.420Z,99.00
2017-07-05T03:50:38.884Z,99.00
2017-07-05T03:53:06.385Z,98.90
2017-07-05T03:55:33.827Z,99.20
2017-07-05T03:58:01.283Z,98.80
2017-07-05T04:00:28.723Z,98.60
2017-07-05T04:02:56.171Z,98.70
2017-07-05T04:05:23.615Z,98.80
2017-07-05T04:07:51.823Z,98.90
2017-07-05T04:10:19.275Z,98.80
2017-07-05T04:12:46.715Z,98.90
2017-07-05T04:15:14.159Z,98.80
2017-07-05T04:17:42.391Z,98.70
2017-07-05T04:20:09.836Z,98.60
2017-07-05T04:22:37.280Z,98.70
2017-07-05T04:25:04.723Z,98.50
2017-07-05T04:27:32.161Z,96.70
2017-07-05T04:29:59.623Z,97.10
2017-07-05T04:32:27.080Z,96.70
2017-07-05T04:34:55.276Z,94.50
2017-07-05T04:37:22.723Z,94.50
2017-07-05T04:39:50.168Z,93.00
2017-07-05T04:42:17.608Z,91.20
2017-07-05T04:44:45.845Z,85.00
2017-07-05T04:47:13.301Z,84.90
2017-07-05T04:49:40.744Z,81.90
2017-07-05T04:52:08.195Z,79.40
2017-07-05T04:54:35.644Z,77.40
2017-07-05T04:57:03.099Z,75.20
2017-07-05T04:59:30.539Z,73.60
2017-07-05T05:01:57.993Z,72.40
2017-07-05T05:04:25.431Z,72.00
2017-07-05T05:06:53.644Z,72.70
2017-07-05T05:09:21.083Z,72.60
2017-07-05T05:11:48.555Z,74.50
2017-07-05T05:14:15.996Z,74.90
2017-07-05T05:16:43.443Z,74.50
2017-07-05T05:19:10.895Z,72.70
2017-07-05T05:21:39.096Z,67.60
2017-07-05T05:24:06.552Z,67.60
2017-07-05T05:26:33.995Z,65.40
2017-07-05T05:29:01.446Z,62.80
2017-07-05T05:31:28.885Z,61.40
2017-07-05T05:33:57.122Z,58.70
2017-07-05T05:36:24.571Z,58.60
2017-07-05T05:38:52.040Z,57.80
2017-07-05T05:41:19.491Z,57.00
2017-07-05T05:43:46.931Z,56.70
2017-07-05T05:46:14.383Z,56.70
2017-07-05T05:48:41.831Z,56.60
2017-07-05T05:51:09.288Z,55.90
2017-07-05T05:53:36.724Z,54.60
2017-07-05T05:56:04.170Z,53.00
2017-07-05T05:58:31.614Z,51.90
2017-07-05T06:00:59.059Z,50.00
2017-07-05T06:03:26.521Z,48.90
2017-07-05T06:05:54.780Z,49.70
2017-07-05T06:08:22.238Z,49.60
2017-07-05T06:10:49.683Z,50.20
2017-07-05T06:13:17.140Z,49.90
2017-07-05T06:15:44.590Z,48.40
2017-07-05T06:18:12.047Z,48.70
2017-07-05T06:20:39.496Z,47.00
2017-07-05T06:23:06.936Z,47.10
2017-07-05T06:25:34.384Z,46.30
2017-07-05T06:28:01.841Z,44.60
2017-07-05T06:30:29.279Z,43.80
2017-07-05T06:32:56.980Z,42.70
2017-07-05T06:35:24.435Z,41.00
2017-07-05T06:37:51.875Z,39.90
2017-07-05T06:40:19.331Z,39.70
2017-07-05T06:42:46.782Z,41.90
2017-07-05T06:45:14.225Z,40.80
2017-07-05T06:47:41.664Z,40.90
2017-07-05T06:50:09.879Z,39.20
2017-07-05T06:52:37.324Z,39.10
2017-07-05T06:55:04.776Z,38.00
2017-07-05T06:57:32.220Z,41.30
2017-07-05T06:59:59.697Z,39.80
2017-07-05T07:02:27.136Z,38.00
2017-07-05T07:04:54.580Z,37.50
2017-07-05T07:07:22.031Z,37.40
2017-07-05T07:09:50.242Z,39.80
2017-07-05T07:12:17.698Z,39.60
2017-07-05T07:14:45.150Z,42.60
2017-07-05T07:17:12.602Z,41.70
2017-07-05T07:19:40.047Z,38.90
2017-07-05T07:22:07.522Z,37.20
2017-07-05T07:24:34.973Z,36.30
2017-07-05T07:27:02.412Z,35.50
2017-07-05T07:29:29.856Z,37.10
2017-07-05T07:31:58.064Z,39.00
2017-07-05T07:34:25.520Z,39.00
2017-07-05T07:36:52.963Z,43.60
2017-07-05T07:39:20.411Z,41.60
2017-07-05T07:41:47.851Z,38.80
2017-07-05T07:44:16.095Z,37.60
2017-07-05T07:46:43.544Z,37.60
2017-07-05T07:49:10.995Z,38.10
2017-07-05T07:51:38.444Z,50.50
2017-07-05T07:54:05.889Z,49.60
2017-07-05T07:56:33.342Z,46.00
2017-07-05T07:59:00.807Z,41.80
2017-07-05T08:01:28.259Z,40.90
2017-07-05T08:03:55.718Z,47.50
2017-07-05T08:06:23.168Z,49.20
2017-07-05T08:08:50.632Z,53.00
2017-07-05T08:11:18.079Z,46.70
2017-07-05T08:13:45.523Z,50.10
2017-07-05T08:16:12.958Z,52.70
2017-07-05T08:18:41.167Z,51.20
2017-07-05T08:21:08.629Z,51.10
2017-07-05T08:23:36.080Z,46.90
2017-07-05T08:26:03.530Z,44.70
2017-07-05T08:28:30.977Z,42.50
2017-07-05T08:30:58.420Z,40.40
2017-07-05T08:33:25.864Z,40.50
2017-07-05T08:35:54.075Z,42.20
2017-07-05T08:38:21.549Z,42.10
2017-07-05T08:40:48.992Z,43.40
2017-07-05T08:43:16.432Z,47.90
2017-07-05T08:45:43.883Z,47.40
2017-07-05T08:48:11.323Z,45.90
2017-07-05T08:50:38.773Z,41.40
2017-07-05T08:53:06.221Z,40.70
2017-07-05T08:55:34.448Z,50.90
2017-07-05T08:58:01.904Z,50.70
2017-07-05T09:00:29.361Z,51.80
2017-07-05T09:02:58.075Z,46.40
2017-07-05T09:05:25.535Z,40.80
2017-07-05T09:07:52.987Z,46.00
2017-07-05T09:10:20.459Z,42.40
2017-07-05T09:12:48.674Z,38.10
2017-07-05T09:15:16.112Z,38.50
2017-07-05T09:17:43.563Z,36.40
2017-07-05T09:20:11.012Z,39.00
2017-07-05T09:22:39.227Z,37.20
2017-07-05T09:25:06.693Z,37.20
2017-07-05T09:27:34.144Z,37.20
2017-07-05T09:30:01.604Z,43.50
2017-07-05T09:32:29.068Z,42.40
2017-07-05T09:34:56.513Z,40.50
2017-07-05T09:37:23.967Z,38.10
2017-07-05T09:39:51.421Z,37.20
2017-07-05T09:42:18.891Z,35.00
2017-07-05T09:44:46.336Z,33.60
2017-07-05T09:47:13.780Z,38.70
2017-07-05T09:49:41.228Z,38.00
2017-07-05T09:52:08.667Z,36.00
2017-07-05T09:54:36.878Z,33.80
2017-07-05T09:57:04.329Z,33.90
2017-07-05T09:59:31.787Z,35.00
2017-07-05T10:01:59.237Z,34.10
2017-07-05T10:04:26.688Z,36.50
2017-07-05T10:06:54.127Z,36.80
2017-07-05T10:09:21.580Z,34.60
2017-07-05T10:11:49.028Z,34.30
2017-07-05T10:14:17.245Z,35.20
2017-07-05T10:16:44.699Z,34.50
2017-07-05T10:19:12.169Z,32.70
2017-07-05T10:21:39.609Z,30.90
2017-07-05T10:24:07.067Z,29.90
2017-07-05T10:26:34.525Z,30.10
2017-07-05T10:29:01.980Z,33.20
2017-07-05T10:31:29.436Z,36.60
2017-07-05T10:33:56.891Z,40.10
2017-07-05T10:36:24.347Z,39.40
2017-07-05T10:38:51.804Z,35.50
2017-07-05T10:41:19.263Z,35.30
2017-07-05T10:43:46.704Z,33.80
2017-07-05T10:46:14.160Z,34.50
2017-07-05T10:48:41.598Z,33.80
2017-07-05T10:51:09.039Z,34.10
2017-07-05T10:53:37.268Z,34.70
2017-07-05T10:56:04.699Z,33.90
2017-07-05T10:58:32.151Z,38.60
2017-07-05T11:00:59.591Z,38.40
2017-07-05T11:03:27.815Z,33.90
2017-07-05T11:05:55.255Z,33.80
2017-07-05T11:08:22.712Z,35.00
2017-07-05T11:10:50.153Z,35.90
2017-07-05T11:13:17.601Z,35.70
2017-07-05T11:15:45.036Z,37.70
2017-07-05T11:18:12.475Z,35.00
2017-07-05T11:20:39.919Z,32.10
2017-07-05T11:23:07.386Z,32.30
2017-07-05T11:25:34.831Z,34.60
2017-07-05T11:28:02.280Z,32.60
2017-07-05T11:30:29.728Z,36.00
2017-07-05T11:32:57.173Z,40.30
2017-07-05T11:35:24.627Z,37.60
2017-07-05T11:37:52.084Z,35.70
2017-07-05T11:40:19.527Z,34.10
2017-07-05T11:42:46.977Z,35.00
2017-07-05T11:45:14.420Z,32.40
2017-07-05T11:47:42.640Z,32.30
2017-07-05T11:50:10.084Z,32.30
2017-07-05T11:52:37.540Z,33.70
2017-07-05T11:55:04.995Z,32.90
2017-07-05T11:57:32.456Z,33.60
2017-07-05T11:59:59.924Z,36.10
2017-07-05T12:02:27.390Z,36.90
2017-07-05T12:04:54.840Z,36.40
2017-07-05T12:07:22.279Z,35.90
2017-07-05T12:09:49.735Z,34.70
2017-07-05T12:12:17.188Z,35.20
2017-07-05T12:14:44.647Z,34.20
2017-07-05T12:17:12.091Z,36.20
2017-07-05T12:19:39.536Z,37.60
2017-07-05T12:22:06.975Z,39.30
2017-07-05T12:24:34.428Z,39.80
2017-07-05T12:27:02.632Z,41.30
2017-07-05T12:29:30.077Z,41.20
2017-07-05T12:31:57.515Z,39.60
2017-07-05T12:34:25.751Z,41.30
2017-07-05T12:36:53.200Z,40.60
2017-07-05T12:39:20.643Z,41.90
2017-07-05T12:41:48.096Z,39.10
2017-07-05T12:44:15.527Z,41.20
2017-07-05T12:46:42.974Z,42.70
2017-07-05T12:49:11.183Z,41.50
2017-07-05T12:51:38.645Z,41.50
2017-07-05T12:54:06.097Z,40.30
2017-07-05T12:56:33.551Z,39.40
2017-07-05T12:59:00.995Z,39.20
2017-07-05T13:01:28.451Z,40.80
2017-07-05T13:03:55.891Z,40.90
2017-07-05T13:06:23.355Z,41.00
2017-07-05T13:08:50.791Z,41.20
2017-07-05T13:11:19.008Z,41.40
2017-07-05T13:13:46.489Z,41.40
2017-07-05T13:16:13.936Z,39.70
2017-07-05T13:18:41.392Z,41.30
2017-07-05T13:21:08.833Z,38.90
2017-07-05T13:23:36.287Z,38.70
2017-07-05T13:26:03.733Z,38.70
2017-07-05T13:28:31.179Z,38.80
2017-07-05T13:30:58.624Z,39.50
2017-07-05T13:33:26.831Z,38.90
2017-07-05T13:35:54.312Z,38.80
2017-07-05T13:38:21.782Z,38.60
2017-07-05T13:40:49.227Z,39.20
2017-07-05T13:43:16.667Z,39.00
2017-07-05T13:45:44.115Z,40.20
2017-07-05T13:48:11.568Z,37.70
2017-07-05T13:50:39.024Z,38.70
2017-07-05T13:53:06.480Z,39.00
2017-07-05T13:55:33.936Z,39.40
2017-07-05T13:58:01.402Z,38.60
2017-07-05T14:00:28.856Z,40.70
2017-07-05T14:02:56.309Z,41.10
2017-07-05T14:05:23.756Z,37.00
2017-07-05T14:07:51.219Z,36.90
2017-07-05T14:10:18.660Z,38.50
2017-07-05T14:12:46.108Z,37.40
2017-07-05T14:15:13.543Z,35.80
2017-07-05T14:17:41.760Z,39.60
2017-07-05T14:20:09.208Z,39.60
2017-07-05T14:22:36.684Z,39.20
2017-07-05T14:25:04.127Z,37.90
2017-07-05T14:27:31.573Z,38.30
2017-07-05T14:29:59.027Z,37.90
2017-07-05T14:32:26.476Z,38.70
2017-07-05T14:34:53.920Z,38.20
2017-07-05T14:37:21.367Z,38.10
2017-07-05T14:39:49.584Z,37.80
2017-07-05T14:42:17.037Z,37.70
2017-07-05T14:44:44.490Z,37.40
2017-07-05T14:47:11.924Z,35.10
2017-07-05T14:49:39.372Z,36.60
2017-07-05T14:52:07.579Z,34.50
2017-07-05T14:54:35.059Z,34.50
2017-07-05T14:57:02.495Z,33.30
2017-07-05T14:59:29.933Z,33.60
2017-07-05T15:01:57.479Z,33.60
2017-07-05T15:04:24.918Z,35.50
2017-07-05T15:06:53.134Z,32.50
2017-07-05T15:09:20.574Z,32.50
2017-07-05T15:11:48.026Z,32.80
2017-07-05T15:14:15.468Z,32.50
2017-07-05T15:16:43.684Z,34.40
2017-07-05T15:19:11.137Z,34.40
2017-07-05T15:21:38.591Z,33.40
2017-07-05T15:24:06.048Z,34.00
2017-07-05T15:26:33.519Z,35.00
2017-07-05T15:29:00.959Z,34.50
2017-07-05T15:31:28.411Z,34.20
2017-07-05T15:33:55.856Z,33.80
2017-07-05T15:36:23.297Z,34.80
2017-07-05T15:38:51.506Z,33.20
2017-07-05T15:41:19.268Z,33.10
2017-07-05T15:43:46.725Z,33.10
2017-07-05T15:46:14.180Z,33.60
2017-07-05T15:48:41.632Z,33.20
2017-07-05T15:51:09.075Z,33.40
2017-07-05T15:53:36.519Z,33.90
2017-07-05T15:56:03.971Z,34.70
2017-07-05T15:58:32.176Z,34.60
2017-07-05T16:00:59.656Z,34.60
2017-07-05T16:03:27.104Z,33.10
2017-07-05T16:05:54.556Z,33.90
2017-07-05T16:08:22.004Z,33.50
2017-07-05T16:10:49.481Z,35.30
2017-07-05T16:13:16.931Z,33.00
2017-07-05T16:15:44.372Z,34.20
2017-07-05T16:18:11.825Z,34.90
2017-07-05T16:20:39.350Z,34.40
2017-07-05T16:23:06.806Z,34.50
2017-07-05T16:25:35.016Z,35.30
2017-07-05T16:28:02.503Z,35.30
2017-07-05T16:30:29.939Z,34.70
2017-07-05T16:32:57.383Z,37.00
2017-07-05T16:35:24.833Z,37.80
2017-07-05T16:37:52.295Z,36.70
2017-07-05T16:40:19.751Z,38.10
2017-07-05T16:42:47.207Z,37.90
2017-07-05T16:45:14.665Z,37.20
2017-07-05T16:47:42.120Z,37.80
2017-07-05T16:50:09.577Z,36.60
2017-07-05T16:52:37.022Z,37.40
2017-07-05T16:55:04.468Z,38.10
2017-07-05T16:57:31.908Z,37.80
2017-07-05T17:00:00.131Z,37.40
2017-07-05T17:02:27.581Z,37.40
2017-07-05T17:04:55.036Z,37.00
2017-07-05T17:07:22.481Z,37.50
2017-07-05T17:09:49.931Z,38.90
2017-07-05T17:12:17.371Z,38.10
2017-07-05T17:14:44.844Z,38.30
2017-07-05T17:17:12.296Z,37.60
2017-07-05T17:19:39.744Z,36.90
2017-07-05T17:22:07.190Z,37.70
2017-07-05T17:24:35.404Z,39.60
2017-07-05T17:27:02.851Z,39.60
2017-07-05T17:29:30.296Z,39.30
2017-07-05T17:31:57.753Z,39.60
2017-07-05T17:34:25.248Z,40.20
2017-07-05T17:36:52.708Z,40.20
2017-07-05T17:39:20.170Z,40.90
2017-07-05T17:41:47.643Z,41.30
2017-07-05T17:44:15.847Z,41.90
2017-07-05T17:46:43.289Z,41.90
2017-07-05T17:49:10.756Z,42.10
2017-07-05T17:51:38.195Z,42.20
2017-07-05T17:54:05.647Z,43.90
2017-07-05T17:56:33.862Z,44.00
2017-07-05T17:59:01.320Z,44.00
2017-07-05T18:01:28.763Z,44.50
2017-07-05T18:03:56.206Z,44.30
2017-07-05T18:06:23.647Z,44.50
2017-07-05T18:08:51.868Z,45.90
2017-07-05T18:11:19.310Z,45.90
2017-07-05T18:13:46.775Z,46.30
2017-07-05T18:16:14.219Z,46.50
2017-07-05T18:18:41.659Z,46.50
2017-07-05T18:21:09.107Z,46.70
2017-07-05T18:23:37.319Z,47.20
2017-07-05T18:26:04.775Z,47.20
2017-07-05T18:28:32.215Z,47.20
2017-07-05T18:30:59.660Z,46.90
2017-07-05T18:33:27.103Z,47.10
2017-07-05T18:35:54.560Z,47.10
2017-07-05T18:38:22.777Z,47.70
2017-07-05T18:40:50.243Z,47.60
2017-07-05T18:43:17.696Z,47.70
2017-07-05T18:45:45.141Z,47.90
2017-07-05T18:48:12.605Z,47.60
2017-07-05T18:50:40.057Z,50.00
2017-07-05T18:53:07.508Z,53.00
2017-07-05T18:55:34.968Z,55.00
2017-07-05T18:58:02.423Z,55.70
2017-07-05T19:00:29.874Z,56.30
2017-07-05T19:02:57.315Z,56.90
2017-07-05T19:05:24.759Z,57.90
2017-07-05T19:07:52.208Z,59.30
2017-07-05T19:10:20.419Z,64.70
2017-07-05T19:12:47.893Z,64.70
2017-07-05T19:15:15.339Z,66.50
2017-07-05T19:17:42.783Z,67.70
2017-07-05T19:20:10.233Z,68.30
2017-07-05T19:22:37.671Z,69.80
2017-07-05T19:25:05.116Z,70.90
2017-07-05T19:27:33.331Z,72.60
2017-07-05T19:30:00.787Z,72.50
2017-07-05T19:32:28.246Z,72.90
2017-07-05T19:34:55.700Z,73.00
2017-07-05T19:37:23.156Z,72.70
2017-07-05T19:39:50.619Z,72.70
2017-07-05T19:42:18.073Z,72.70
2017-07-05T19:44:45.533Z,74.10
2017-07-05T19:47:12.984Z,75.80
2017-07-05T19:49:40.423Z,76.50
2017-07-05T19:52:07.871Z,76.00
2017-07-05T19:54:35.316Z,75.80
2017-07-05T19:57:02.761Z,75.70
2017-07-05T19:59:30.199Z,75.40
2017-07-05T20:01:57.652Z,75.70
2017-07-05T20:04:25.095Z,75.20
2017-07-05T20:06:52.544Z,74.90
2017-07-05T20:09:20.002Z,75.10
2017-07-05T20:11:47.459Z,75.60
2017-07-05T20:14:14.928Z,75.30
2017-07-05T20:16:42.397Z,75.50
2017-07-05T20:19:09.847Z,75.50
2017-07-05T20:21:37.305Z,76.00
2017-07-05T20:24:04.756Z,76.60
2017-07-05T20:26:32.208Z,78.00
2017-07-05T20:28:59.680Z,78.30
2017-07-05T20:31:27.120Z,80.10
2017-07-05T20:33:54.571Z,81.50
2017-07-05T20:36:22.006Z,82.30
2017-07-05T20:38:49.461Z,83.00
2017-07-05T20:41:16.912Z,82.60
2017-07-05T20:43:44.731Z,81.20
2017-07-05T20:46:12.209Z,80.90
2017-07-05T20:48:39.702Z,80.00
2017-07-05T20:51:07.523Z,79.90
2017-07-05T20:53:35.809Z,79.50
2017-07-05T20:56:04.059Z,79.50
2017-07-05T20:58:31.743Z,79.50
2017-07-05T21:01:00.015Z,79.90
2017-07-05T21:03:28.306Z,80.60
2017-07-05T21:05:56.533Z,81.70
2017-07-05T21:08:24.073Z,81.70
2017-07-05T21:10:51.561Z,83.90
2017-07-05T21:13:19.046Z,84.20
2017-07-05T21:15:46.534Z,83.10
2017-07-05T21:18:14.016Z,83.70
2017-07-05T21:20:41.517Z,83.90
2017-07-05T21:23:09.757Z,84.90
2017-07-05T21:25:37.337Z,84.90
2017-07-05T21:28:05.585Z,84.70
2017-07-05T21:30:33.060Z,84.70
2017-07-05T21:33:00.545Z,84.30
2017-07-05T21:35:28.259Z,85.00
2017-07-05T21:37:55.756Z,85.60
2017-07-05T21:40:23.237Z,86.00
2017-07-05T21:42:50.721Z,85.50
2017-07-05T21:45:18.211Z,86.60
2017-07-05T21:47:45.719Z,87.90
2017-07-05T21:50:13.566Z,88.60
2017-07-05T21:52:41.050Z,89.60
2017-07-05T21:55:08.533Z,90.40
2017-07-05T21:57:36.015Z,91.00
2017-07-05T22:00:04.271Z,90.40
2017-07-05T22:02:31.758Z,90.30
2017-07-05T22:04:59.245Z,90.20
2017-07-05T22:07:26.725Z,90.00
2017-07-05T22:09:54.213Z,89.80
2017-07-05T22:12:22.462Z,90.10
2017-07-05T22:14:50.816Z,90.10
2017-07-05T22:17:18.293Z,90.20
2017-07-05T22:19:45.764Z,90.20
2017-07-05T22:22:13.245Z,90.10
2017-07-05T22:24:41.483Z,90.40
2017-07-05T22:27:08.972Z,90.40
2017-07-05T22:29:37.223Z,90.50
2017-07-05T22:32:04.722Z,90.50
2017-07-05T22:34:32.204Z,90.40
2017-07-05T22:36:59.693Z,90.20
2017-07-05T22:39:27.168Z,90.30
2017-07-05T22:41:55.421Z,89.60
2017-07-05T22:44:22.903Z,89.50
2017-07-05T22:46:51.164Z,90.10
2017-07-05T22:49:18.640Z,89.50
2017-07-05T22:51:46.885Z,88.70
2017-07-05T22:54:14.374Z,88.70
2017-07-05T22:56:41.861Z,87.80
2017-07-05T22:59:09.353Z,87.90
2017-07-05T23:01:36.839Z,88.50
2017-07-05T23:04:05.093Z,88.50
2017-07-05T23:06:32.569Z,88.50
2017-07-05T23:09:00.826Z,88.50
2017-07-05T23:11:28.301Z,88.50
2017-07-05T23:13:56.564Z,90.00
2017-07-05T23:16:24.042Z,90.00
2017-07-05T23:18:52.289Z,89.60
2017-07-05T23:21:19.758Z,89.60
2017-07-05T23:23:47.975Z,90.10
2017-07-05T23:26:15.432Z,89.80
2017-07-05T23:28:42.876Z,90.40
2017-07-05T23:31:10.328Z,90.10
2017-07-05T23:33:37.768Z,90.10
2017-07-05T23:36:05.991Z,90.00
2017-07-05T23:38:33.431Z,90.00
2017-07-05T23:41:00.900Z,89.80
2017-07-05T23:43:28.346Z,90.00
2017-07-05T23:45:55.803Z,89.30
2017-07-05T23:48:23.259Z,90.20
2017-07-05T23:50:50.710Z,90.50
2017-07-05T23:53:18.171Z,90.30
2017-07-05T23:55:45.618Z,90.50
2017-07-05T23:58:13.058Z,90.90
